sensor_id;sensor_type;location;lat;lon;timestamp;temperature;humidity
22430;DHT22;11382;48.086;11.632;2023-09-19T00:01:03;15.70;99.90
22430;DHT22;11382;48.086;11.632;2023-09-19T00:03:34;15.80;99.90
22430;DHT22;11382;48.086;11.632;2023-09-19T00:06:06;15.80;99.90
22430;DHT22;11382;48.086;11.632;2023-09-19T00:08:34;15.80;99.90
22430;DHT22;11382;48.086;11.632;2023-09-19T00:11:02;15.80;99.90
22430;DHT22;11382;48.086;11.632;2023-09-19T00:13:30;15.80;99.90
22430;DHT22;11382;48.086;11.632;2023-09-19T00:15:59;15.80;99.90
22430;DHT22;11382;48.086;11.632;2023-09-19T00:18:27;15.80;99.90
22430;DHT22;11382;48.086;11.632;2023-09-19T00:20:59;15.80;99.90
22430;DHT22;11382;48.086;11.632;2023-09-19T00:23:28;15.80;99.90
22430;DHT22;11382;48.086;11.632;2023-09-19T00:25:58;15.80;99.90
22430;DHT22;11382;48.086;11.632;2023-09-19T00:28:27;15.80;99.90
22430;DHT22;11382;48.086;11.632;2023-09-19T00:30:56;15.90;99.90
22430;DHT22;11382;48.086;11.632;2023-09-19T00:33:28;15.90;99.90
22430;DHT22;11382;48.086;11.632;2023-09-19T00:35:57;16.00;99.90
22430;DHT22;11382;48.086;11.632;2023-09-19T00:38:25;16.00;99.90
22430;DHT22;11382;48.086;11.632;2023-09-19T00:40:55;15.90;99.90
22430;DHT22;11382;48.086;11.632;2023-09-19T00:43:27;16.00;99.90
22430;DHT22;11382;48.086;11.632;2023-09-19T00:45:56;16.00;99.90
22430;DHT22;11382;48.086;11.632;2023-09-19T00:48:26;16.00;99.90
22430;DHT22;11382;48.086;11.632;2023-09-19T00:50:57;16.00;99.90
22430;DHT22;11382;48.086;11.632;2023-09-19T00:53:26;16.00;99.90
22430;DHT22;11382;48.086;11.632;2023-09-19T00:55:56;16.00;99.90
22430;DHT22;11382;48.086;11.632;2023-09-19T00:58:24;16.00;99.90
22430;DHT22;11382;48.086;11.632;2023-09-19T01:00:53;16.00;99.90
22430;DHT22;11382;48.086;11.632;2023-09-19T01:03:22;16.00;99.90
22430;DHT22;11382;48.086;11.632;2023-09-19T01:05:51;15.90;99.90
22430;DHT22;11382;48.086;11.632;2023-09-19T01:08:19;16.00;99.90
22430;DHT22;11382;48.086;11.632;2023-09-19T01:10:51;16.00;99.90
22430;DHT22;11382;48.086;11.632;2023-09-19T01:13:30;16.00;99.90
22430;DHT22;11382;48.086;11.632;2023-09-19T01:16:06;16.00;99.90
22430;DHT22;11382;48.086;11.632;2023-09-19T01:18:48;16.00;99.90
22430;DHT22;11382;48.086;11.632;2023-09-19T01:21:26;16.00;99.90
22430;DHT22;11382;48.086;11.632;2023-09-19T01:24:22;16.00;99.90
22430;DHT22;11382;48.086;11.632;2023-09-19T01:27:17;16.00;99.90
22430;DHT22;11382;48.086;11.632;2023-09-19T01:29:52;16.00;99.90
22430;DHT22;11382;48.086;11.632;2023-09-19T01:32:23;16.00;99.90
22430;DHT22;11382;48.086;11.632;2023-09-19T01:34:54;16.10;99.90
22430;DHT22;11382;48.086;11.632;2023-09-19T01:37:24;16.00;99.90
22430;DHT22;11382;48.086;11.632;2023-09-19T01:39:55;16.10;99.90
22430;DHT22;11382;48.086;11.632;2023-09-19T01:42:35;16.10;99.90
22430;DHT22;11382;48.086;11.632;2023-09-19T01:45:11;16.10;99.90
22430;DHT22;11382;48.086;11.632;2023-09-19T01:47:48;16.10;99.90
22430;DHT22;11382;48.086;11.632;2023-09-19T01:50:22;16.10;99.90
22430;DHT22;11382;48.086;11.632;2023-09-19T01:52:57;16.10;99.90
22430;DHT22;11382;48.086;11.632;2023-09-19T01:55:29;16.10;99.90
22430;DHT22;11382;48.086;11.632;2023-09-19T01:58:01;16.10;99.90
22430;DHT22;11382;48.086;11.632;2023-09-19T02:00:33;16.10;99.90
22430;DHT22;11382;48.086;11.632;2023-09-19T02:03:05;16.20;99.90
22430;DHT22;11382;48.086;11.632;2023-09-19T02:05:33;16.20;99.90
22430;DHT22;11382;48.086;11.632;2023-09-19T02:08:02;16.20;99.90
22430;DHT22;11382;48.086;11.632;2023-09-19T02:10:30;16.20;99.90
22430;DHT22;11382;48.086;11.632;2023-09-19T02:12:58;16.20;99.90
22430;DHT22;11382;48.086;11.632;2023-09-19T02:15:27;16.20;99.90
22430;DHT22;11382;48.086;11.632;2023-09-19T02:17:55;16.20;99.90
22430;DHT22;11382;48.086;11.632;2023-09-19T02:20:25;16.20;99.90
22430;DHT22;11382;48.086;11.632;2023-09-19T02:22:53;16.20;99.90
22430;DHT22;11382;48.086;11.632;2023-09-19T02:25:21;16.20;99.90
22430;DHT22;11382;48.086;11.632;2023-09-19T02:27:49;16.20;99.90
22430;DHT22;11382;48.086;11.632;2023-09-19T02:30:20;16.20;99.90
22430;DHT22;11382;48.086;11.632;2023-09-19T02:32:52;16.20;99.90
22430;DHT22;11382;48.086;11.632;2023-09-19T02:35:20;16.20;99.90
22430;DHT22;11382;48.086;11.632;2023-09-19T02:37:50;16.20;99.90
22430;DHT22;11382;48.086;11.632;2023-09-19T02:40:18;16.20;99.90
22430;DHT22;11382;48.086;11.632;2023-09-19T02:42:47;16.20;99.90
22430;DHT22;11382;48.086;11.632;2023-09-19T02:45:16;16.20;99.90
22430;DHT22;11382;48.086;11.632;2023-09-19T02:47:46;16.20;99.90
22430;DHT22;11382;48.086;11.632;2023-09-19T02:50:15;16.20;99.90
22430;DHT22;11382;48.086;11.632;2023-09-19T02:52:44;16.20;99.90
22430;DHT22;11382;48.086;11.632;2023-09-19T02:55:18;16.20;99.90
22430;DHT22;11382;48.086;11.632;2023-09-19T02:57:47;16.10;99.90
22430;DHT22;11382;48.086;11.632;2023-09-19T03:00:16;16.20;99.90
22430;DHT22;11382;48.086;11.632;2023-09-19T03:02:47;16.10;99.90
22430;DHT22;11382;48.086;11.632;2023-09-19T03:05:16;16.10;99.90
22430;DHT22;11382;48.086;11.632;2023-09-19T03:07:45;16.10;99.90
22430;DHT22;11382;48.086;11.632;2023-09-19T03:10:15;16.10;99.90
22430;DHT22;11382;48.086;11.632;2023-09-19T03:12:43;16.10;99.90
22430;DHT22;11382;48.086;11.632;2023-09-19T03:15:11;16.10;99.90
22430;DHT22;11382;48.086;11.632;2023-09-19T03:17:42;16.10;99.90
22430;DHT22;11382;48.086;11.632;2023-09-19T03:20:12;16.10;99.90
22430;DHT22;11382;48.086;11.632;2023-09-19T03:22:41;16.00;99.90
22430;DHT22;11382;48.086;11.632;2023-09-19T03:25:10;16.10;99.90
22430;DHT22;11382;48.086;11.632;2023-09-19T03:27:41;16.10;99.90
22430;DHT22;11382;48.086;11.632;2023-09-19T03:30:10;16.10;99.90
22430;DHT22;11382;48.086;11.632;2023-09-19T03:32:45;16.10;99.90
22430;DHT22;11382;48.086;11.632;2023-09-19T03:35:17;16.10;99.90
22430;DHT22;11382;48.086;11.632;2023-09-19T03:37:46;16.10;99.90
22430;DHT22;11382;48.086;11.632;2023-09-19T03:40:15;16.10;99.90
22430;DHT22;11382;48.086;11.632;2023-09-19T03:42:45;16.10;99.90
22430;DHT22;11382;48.086;11.632;2023-09-19T03:45:13;16.10;99.90
22430;DHT22;11382;48.086;11.632;2023-09-19T03:47:51;16.20;99.90
22430;DHT22;11382;48.086;11.632;2023-09-19T03:50:22;16.10;99.90
22430;DHT22;11382;48.086;11.632;2023-09-19T03:52:55;16.20;99.90
22430;DHT22;11382;48.086;11.632;2023-09-19T03:55:23;16.20;99.90
22430;DHT22;11382;48.086;11.632;2023-09-19T03:57:53;16.10;99.90
22430;DHT22;11382;48.086;11.632;2023-09-19T04:00:21;16.10;99.90
22430;DHT22;11382;48.086;11.632;2023-09-19T04:02:53;16.20;99.90
22430;DHT22;11382;48.086;11.632;2023-09-19T04:05:23;16.20;99.90
22430;DHT22;11382;48.086;11.632;2023-09-19T04:07:51;16.20;99.90
22430;DHT22;11382;48.086;11.632;2023-09-19T04:10:20;16.20;99.90
22430;DHT22;11382;48.086;11.632;2023-09-19T04:12:53;16.20;99.90
22430;DHT22;11382;48.086;11.632;2023-09-19T04:15:22;16.20;99.90
22430;DHT22;11382;48.086;11.632;2023-09-19T04:17:53;16.20;99.90
22430;DHT22;11382;48.086;11.632;2023-09-19T04:20:21;16.10;99.90
22430;DHT22;11382;48.086;11.632;2023-09-19T04:22:50;16.10;99.90
22430;DHT22;11382;48.086;11.632;2023-09-19T04:25:19;16.20;99.90
22430;DHT22;11382;48.086;11.632;2023-09-19T04:27:47;16.10;99.90
22430;DHT22;11382;48.086;11.632;2023-09-19T04:30:17;16.10;99.90
22430;DHT22;11382;48.086;11.632;2023-09-19T04:32:44;16.10;99.90
22430;DHT22;11382;48.086;11.632;2023-09-19T04:35:18;16.10;99.90
22430;DHT22;11382;48.086;11.632;2023-09-19T04:37:46;16.10;99.90
22430;DHT22;11382;48.086;11.632;2023-09-19T04:40:15;16.10;99.90
22430;DHT22;11382;48.086;11.632;2023-09-19T04:42:45;16.10;99.90
22430;DHT22;11382;48.086;11.632;2023-09-19T04:45:13;16.10;99.90
22430;DHT22;11382;48.086;11.632;2023-09-19T04:47:43;16.10;99.90
22430;DHT22;11382;48.086;11.632;2023-09-19T04:50:11;16.00;99.90
22430;DHT22;11382;48.086;11.632;2023-09-19T04:52:40;16.10;99.90
22430;DHT22;11382;48.086;11.632;2023-09-19T04:55:11;16.10;99.90
22430;DHT22;11382;48.086;11.632;2023-09-19T04:57:43;16.10;99.90
22430;DHT22;11382;48.086;11.632;2023-09-19T05:00:13;16.00;99.90
22430;DHT22;11382;48.086;11.632;2023-09-19T05:02:44;16.10;99.90
22430;DHT22;11382;48.086;11.632;2023-09-19T05:05:13;16.10;99.90
22430;DHT22;11382;48.086;11.632;2023-09-19T05:07:42;16.10;99.90
22430;DHT22;11382;48.086;11.632;2023-09-19T05:10:10;16.10;99.90
22430;DHT22;11382;48.086;11.632;2023-09-19T05:12:39;16.10;99.90
22430;DHT22;11382;48.086;11.632;2023-09-19T05:15:08;16.20;99.90
22430;DHT22;11382;48.086;11.632;2023-09-19T05:17:36;16.30;99.90
22430;DHT22;11382;48.086;11.632;2023-09-19T05:20:07;16.50;99.90
22430;DHT22;11382;48.086;11.632;2023-09-19T05:22:39;16.60;99.90
22430;DHT22;11382;48.086;11.632;2023-09-19T05:25:08;16.70;99.90
22430;DHT22;11382;48.086;11.632;2023-09-19T05:27:36;16.70;99.90
22430;DHT22;11382;48.086;11.632;2023-09-19T05:30:05;16.80;99.90
22430;DHT22;11382;48.086;11.632;2023-09-19T05:32:35;16.90;99.90
22430;DHT22;11382;48.086;11.632;2023-09-19T05:35:03;16.90;99.90
22430;DHT22;11382;48.086;11.632;2023-09-19T05:37:36;17.00;99.90
22430;DHT22;11382;48.086;11.632;2023-09-19T05:40:05;17.10;99.90
22430;DHT22;11382;48.086;11.632;2023-09-19T05:42:37;17.10;99.90
22430;DHT22;11382;48.086;11.632;2023-09-19T05:45:07;17.00;99.90
22430;DHT22;11382;48.086;11.632;2023-09-19T05:47:35;17.00;99.90
22430;DHT22;11382;48.086;11.632;2023-09-19T05:50:03;16.90;99.90
22430;DHT22;11382;48.086;11.632;2023-09-19T05:52:32;17.00;99.90
22430;DHT22;11382;48.086;11.632;2023-09-19T05:55:01;17.00;99.90
22430;DHT22;11382;48.086;11.632;2023-09-19T05:57:31;17.10;99.90
22430;DHT22;11382;48.086;11.632;2023-09-19T05:59:59;17.10;99.90
22430;DHT22;11382;48.086;11.632;2023-09-19T06:02:38;17.10;99.90
22430;DHT22;11382;48.086;11.632;2023-09-19T06:05:07;17.30;99.90
22430;DHT22;11382;48.086;11.632;2023-09-19T06:07:37;17.90;99.90
22430;DHT22;11382;48.086;11.632;2023-09-19T06:10:07;19.10;99.90
22430;DHT22;11382;48.086;11.632;2023-09-19T06:12:38;20.30;99.90
22430;DHT22;11382;48.086;11.632;2023-09-19T06:15:06;20.60;99.90
22430;DHT22;11382;48.086;11.632;2023-09-19T06:17:35;20.20;99.90
22430;DHT22;11382;48.086;11.632;2023-09-19T06:20:05;19.80;99.90
22430;DHT22;11382;48.086;11.632;2023-09-19T06:22:40;19.90;99.90
22430;DHT22;11382;48.086;11.632;2023-09-19T06:25:11;20.70;99.90
22430;DHT22;11382;48.086;11.632;2023-09-19T06:27:39;21.20;99.90
22430;DHT22;11382;48.086;11.632;2023-09-19T06:30:09;21.00;99.90
22430;DHT22;11382;48.086;11.632;2023-09-19T06:32:38;20.70;99.90
22430;DHT22;11382;48.086;11.632;2023-09-19T06:35:06;20.90;99.90
22430;DHT22;11382;48.086;11.632;2023-09-19T06:37:35;21.00;99.90
22430;DHT22;11382;48.086;11.632;2023-09-19T06:40:07;20.80;99.90
22430;DHT22;11382;48.086;11.632;2023-09-19T06:42:42;20.70;99.90
22430;DHT22;11382;48.086;11.632;2023-09-19T06:45:11;20.70;99.90
22430;DHT22;11382;48.086;11.632;2023-09-19T06:47:44;21.40;99.90
22430;DHT22;11382;48.086;11.632;2023-09-19T06:50:17;21.40;99.90
22430;DHT22;11382;48.086;11.632;2023-09-19T06:52:47;22.00;99.90
22430;DHT22;11382;48.086;11.632;2023-09-19T06:55:17;21.60;99.90
22430;DHT22;11382;48.086;11.632;2023-09-19T06:57:48;21.00;99.90
22430;DHT22;11382;48.086;11.632;2023-09-19T07:00:17;20.60;99.90
22430;DHT22;11382;48.086;11.632;2023-09-19T07:02:55;20.30;99.90
22430;DHT22;11382;48.086;11.632;2023-09-19T07:05:24;20.40;99.90
22430;DHT22;11382;48.086;11.632;2023-09-19T07:07:52;21.10;99.90
22430;DHT22;11382;48.086;11.632;2023-09-19T07:10:21;22.90;99.90
22430;DHT22;11382;48.086;11.632;2023-09-19T07:12:56;23.80;99.90
22430;DHT22;11382;48.086;11.632;2023-09-19T07:15:25;23.10;99.90
22430;DHT22;11382;48.086;11.632;2023-09-19T07:17:53;22.30;99.90
22430;DHT22;11382;48.086;11.632;2023-09-19T07:20:24;21.50;99.90
22430;DHT22;11382;48.086;11.632;2023-09-19T07:22:54;20.80;99.90
22430;DHT22;11382;48.086;11.632;2023-09-19T07:25:22;20.50;99.90
22430;DHT22;11382;48.086;11.632;2023-09-19T07:27:51;20.30;99.90
22430;DHT22;11382;48.086;11.632;2023-09-19T07:30:20;20.40;99.90
22430;DHT22;11382;48.086;11.632;2023-09-19T07:32:48;20.30;99.90
22430;DHT22;11382;48.086;11.632;2023-09-19T07:35:16;20.20;99.90
22430;DHT22;11382;48.086;11.632;2023-09-19T07:37:47;20.00;99.90
22430;DHT22;11382;48.086;11.632;2023-09-19T07:40:18;20.30;99.90
22430;DHT22;11382;48.086;11.632;2023-09-19T07:42:47;21.70;99.90
22430;DHT22;11382;48.086;11.632;2023-09-19T07:45:16;23.10;99.90
22430;DHT22;11382;48.086;11.632;2023-09-19T07:47:46;22.70;99.90
22430;DHT22;11382;48.086;11.632;2023-09-19T07:50:15;22.10;99.90
22430;DHT22;11382;48.086;11.632;2023-09-19T07:52:46;21.70;99.90
22430;DHT22;11382;48.086;11.632;2023-09-19T07:55:14;21.70;99.90
22430;DHT22;11382;48.086;11.632;2023-09-19T07:57:44;22.20;99.90
22430;DHT22;11382;48.086;11.632;2023-09-19T08:00:13;22.00;99.90
22430;DHT22;11382;48.086;11.632;2023-09-19T08:02:42;22.00;99.90
22430;DHT22;11382;48.086;11.632;2023-09-19T08:05:13;22.10;99.90
22430;DHT22;11382;48.086;11.632;2023-09-19T08:07:44;22.10;99.90
22430;DHT22;11382;48.086;11.632;2023-09-19T08:10:15;22.20;99.90
22430;DHT22;11382;48.086;11.632;2023-09-19T08:12:47;22.60;99.90
22430;DHT22;11382;48.086;11.632;2023-09-19T08:15:17;23.60;99.90
22430;DHT22;11382;48.086;11.632;2023-09-19T08:17:46;23.60;99.90
22430;DHT22;11382;48.086;11.632;2023-09-19T08:20:16;23.40;99.90
22430;DHT22;11382;48.086;11.632;2023-09-19T08:22:47;23.60;99.90
22430;DHT22;11382;48.086;11.632;2023-09-19T08:25:16;24.40;99.90
22430;DHT22;11382;48.086;11.632;2023-09-19T08:27:45;25.40;99.90
22430;DHT22;11382;48.086;11.632;2023-09-19T08:30:14;25.90;99.90
22430;DHT22;11382;48.086;11.632;2023-09-19T08:32:42;26.80;99.90
22430;DHT22;11382;48.086;11.632;2023-09-19T08:35:11;29.00;99.00
22430;DHT22;11382;48.086;11.632;2023-09-19T08:37:40;30.00;96.00
22430;DHT22;11382;48.086;11.632;2023-09-19T08:40:09;29.40;94.20
22430;DHT22;11382;48.086;11.632;2023-09-19T08:42:49;28.40;94.60
22430;DHT22;11382;48.086;11.632;2023-09-19T08:45:17;28.20;94.50
22430;DHT22;11382;48.086;11.632;2023-09-19T08:47:46;28.00;95.60
22430;DHT22;11382;48.086;11.632;2023-09-19T08:50:22;28.90;93.50
22430;DHT22;11382;48.086;11.632;2023-09-19T08:52:56;28.60;93.00
22430;DHT22;11382;48.086;11.632;2023-09-19T08:55:27;28.90;93.70
22430;DHT22;11382;48.086;11.632;2023-09-19T08:58:00;28.30;93.70
22430;DHT22;11382;48.086;11.632;2023-09-19T09:00:28;29.20;92.40
22430;DHT22;11382;48.086;11.632;2023-09-19T09:02:58;29.80;91.70
22430;DHT22;11382;48.086;11.632;2023-09-19T09:05:28;27.60;92.90
22430;DHT22;11382;48.086;11.632;2023-09-19T09:08:01;26.90;95.00
22430;DHT22;11382;48.086;11.632;2023-09-19T09:10:30;26.40;95.30
22430;DHT22;11382;48.086;11.632;2023-09-19T09:12:58;27.10;94.10
22430;DHT22;11382;48.086;11.632;2023-09-19T09:15:29;29.00;93.30
22430;DHT22;11382;48.086;11.632;2023-09-19T09:17:57;28.30;91.60
22430;DHT22;11382;48.086;11.632;2023-09-19T09:20:26;26.70;93.70
22430;DHT22;11382;48.086;11.632;2023-09-19T09:22:55;25.30;95.40
22430;DHT22;11382;48.086;11.632;2023-09-19T09:25:50;24.90;97.20
22430;DHT22;11382;48.086;11.632;2023-09-19T09:28:22;24.40;98.80
22430;DHT22;11382;48.086;11.632;2023-09-19T09:30:51;23.50;99.60
22430;DHT22;11382;48.086;11.632;2023-09-19T09:33:19;23.20;99.90
22430;DHT22;11382;48.086;11.632;2023-09-19T09:35:49;24.80;99.40
22430;DHT22;11382;48.086;11.632;2023-09-19T09:38:20;26.30;97.50
22430;DHT22;11382;48.086;11.632;2023-09-19T09:40:50;28.70;93.90
22430;DHT22;11382;48.086;11.632;2023-09-19T09:43:31;30.10;91.80
22430;DHT22;11382;48.086;11.632;2023-09-19T09:46:11;30.10;88.80
22430;DHT22;11382;48.086;11.632;2023-09-19T09:49:11;30.60;88.60
22430;DHT22;11382;48.086;11.632;2023-09-19T09:51:44;32.50;85.00
22430;DHT22;11382;48.086;11.632;2023-09-19T09:54:25;32.70;80.40
22430;DHT22;11382;48.086;11.632;2023-09-19T09:57:02;32.10;79.30
22430;DHT22;11382;48.086;11.632;2023-09-19T09:59:47;31.80;78.90
22430;DHT22;11382;48.086;11.632;2023-09-19T10:02:17;30.50;82.00
22430;DHT22;11382;48.086;11.632;2023-09-19T10:04:52;29.00;82.50
22430;DHT22;11382;48.086;11.632;2023-09-19T10:07:27;29.00;84.70
22430;DHT22;11382;48.086;11.632;2023-09-19T10:10:00;28.50;84.50
22430;DHT22;11382;48.086;11.632;2023-09-19T10:12:43;28.10;86.90
22430;DHT22;11382;48.086;11.632;2023-09-19T10:15:12;28.90;84.40
22430;DHT22;11382;48.086;11.632;2023-09-19T10:17:43;28.10;85.70
22430;DHT22;11382;48.086;11.632;2023-09-19T10:20:13;27.20;87.60
22430;DHT22;11382;48.086;11.632;2023-09-19T10:23:00;26.90;87.60
22430;DHT22;11382;48.086;11.632;2023-09-19T10:25:29;25.90;90.60
22430;DHT22;11382;48.086;11.632;2023-09-19T10:28:00;24.60;91.70
22430;DHT22;11382;48.086;11.632;2023-09-19T10:30:31;25.50;92.70
22430;DHT22;11382;48.086;11.632;2023-09-19T10:33:02;27.20;90.40
22430;DHT22;11382;48.086;11.632;2023-09-19T10:35:32;28.00;88.30
22430;DHT22;11382;48.086;11.632;2023-09-19T10:38:01;29.00;87.20
22430;DHT22;11382;48.086;11.632;2023-09-19T10:40:30;29.00;84.40
22430;DHT22;11382;48.086;11.632;2023-09-19T10:43:03;28.50;86.50
22430;DHT22;11382;48.086;11.632;2023-09-19T10:45:33;26.90;87.50
22430;DHT22;11382;48.086;11.632;2023-09-19T10:48:02;26.90;90.20
22430;DHT22;11382;48.086;11.632;2023-09-19T10:50:35;27.10;89.00
22430;DHT22;11382;48.086;11.632;2023-09-19T10:53:05;27.20;88.60
22430;DHT22;11382;48.086;11.632;2023-09-19T10:55:36;27.00;90.20
22430;DHT22;11382;48.086;11.632;2023-09-19T10:58:06;27.00;89.10
22430;DHT22;11382;48.086;11.632;2023-09-19T11:00:51;27.80;89.40
22430;DHT22;11382;48.086;11.632;2023-09-19T11:03:21;29.00;85.00
22430;DHT22;11382;48.086;11.632;2023-09-19T11:06:05;30.00;85.60
22430;DHT22;11382;48.086;11.632;2023-09-19T11:08:52;31.40;81.70
22430;DHT22;11382;48.086;11.632;2023-09-19T11:11:43;32.00;77.50
22430;DHT22;11382;48.086;11.632;2023-09-19T11:14:39;31.60;75.30
22430;DHT22;11382;48.086;11.632;2023-09-19T11:17:33;30.80;75.30
22430;DHT22;11382;48.086;11.632;2023-09-19T11:20:23;30.20;76.20
22430;DHT22;11382;48.086;11.632;2023-09-19T11:23:18;29.40;77.30
22430;DHT22;11382;48.086;11.632;2023-09-19T11:25:50;28.50;76.60
22430;DHT22;11382;48.086;11.632;2023-09-19T11:28:35;29.00;78.00
22430;DHT22;11382;48.086;11.632;2023-09-19T11:34:40;30.70;75.40
22430;DHT22;11382;48.086;11.632;2023-09-19T11:40:46;29.90;73.50
22430;DHT22;11382;48.086;11.632;2023-09-19T11:43:32;29.90;73.00
22430;DHT22;11382;48.086;11.632;2023-09-19T11:46:05;29.90;74.90
22430;DHT22;11382;48.086;11.632;2023-09-19T11:48:34;29.70;74.40
22430;DHT22;11382;48.086;11.632;2023-09-19T11:51:17;30.30;75.40
22430;DHT22;11382;48.086;11.632;2023-09-19T11:53:51;29.60;75.10
22430;DHT22;11382;48.086;11.632;2023-09-19T11:56:20;28.30;78.10
22430;DHT22;11382;48.086;11.632;2023-09-19T11:58:51;27.40;79.00
22430;DHT22;11382;48.086;11.632;2023-09-19T12:01:23;26.80;81.50
22430;DHT22;11382;48.086;11.632;2023-09-19T12:03:56;26.40;82.30
22430;DHT22;11382;48.086;11.632;2023-09-19T12:06:27;25.70;83.30
22430;DHT22;11382;48.086;11.632;2023-09-19T12:08:56;25.30;84.10
22430;DHT22;11382;48.086;11.632;2023-09-19T12:11:29;25.10;86.60
22430;DHT22;11382;48.086;11.632;2023-09-19T12:14:00;24.80;86.90
22430;DHT22;11382;48.086;11.632;2023-09-19T12:16:29;24.60;86.90
22430;DHT22;11382;48.086;11.632;2023-09-19T12:18:58;24.70;89.70
22430;DHT22;11382;48.086;11.632;2023-09-19T12:21:54;24.80;90.00
22430;DHT22;11382;48.086;11.632;2023-09-19T12:24:24;24.80;90.50
22430;DHT22;11382;48.086;11.632;2023-09-19T12:26:53;24.80;89.10
22430;DHT22;11382;48.086;11.632;2023-09-19T12:29:23;24.70;87.90
22430;DHT22;11382;48.086;11.632;2023-09-19T12:31:52;24.60;89.60
22430;DHT22;11382;48.086;11.632;2023-09-19T12:34:26;24.70;88.50
22430;DHT22;11382;48.086;11.632;2023-09-19T12:37:07;24.60;88.00
22430;DHT22;11382;48.086;11.632;2023-09-19T12:39:38;24.70;88.10
22430;DHT22;11382;48.086;11.632;2023-09-19T12:42:09;24.70;90.50
22430;DHT22;11382;48.086;11.632;2023-09-19T12:44:38;24.70;90.80
22430;DHT22;11382;48.086;11.632;2023-09-19T12:47:13;24.60;90.20
22430;DHT22;11382;48.086;11.632;2023-09-19T12:50:11;24.40;89.60
22430;DHT22;11382;48.086;11.632;2023-09-19T12:52:48;24.10;89.00
22430;DHT22;11382;48.086;11.632;2023-09-19T12:55:21;23.80;90.40
22430;DHT22;11382;48.086;11.632;2023-09-19T12:58:03;23.60;91.20
22430;DHT22;11382;48.086;11.632;2023-09-19T13:00:37;23.70;91.60
22430;DHT22;11382;48.086;11.632;2023-09-19T13:03:13;23.60;92.30
22430;DHT22;11382;48.086;11.632;2023-09-19T13:05:53;23.60;91.90
22430;DHT22;11382;48.086;11.632;2023-09-19T13:08:26;23.80;93.00
22430;DHT22;11382;48.086;11.632;2023-09-19T13:11:08;23.90;92.00
22430;DHT22;11382;48.086;11.632;2023-09-19T13:13:41;23.60;91.40
22430;DHT22;11382;48.086;11.632;2023-09-19T13:16:15;23.60;92.20
22430;DHT22;11382;48.086;11.632;2023-09-19T13:18:47;23.70;92.20
22430;DHT22;11382;48.086;11.632;2023-09-19T13:21:29;23.90;91.40
22430;DHT22;11382;48.086;11.632;2023-09-19T13:24:19;23.70;91.50
22430;DHT22;11382;48.086;11.632;2023-09-19T13:26:47;23.60;92.20
22430;DHT22;11382;48.086;11.632;2023-09-19T13:29:15;23.60;91.90
22430;DHT22;11382;48.086;11.632;2023-09-19T13:31:48;23.50;92.40
22430;DHT22;11382;48.086;11.632;2023-09-19T13:34:16;23.30;91.90
22430;DHT22;11382;48.086;11.632;2023-09-19T13:36:45;23.40;92.50
22430;DHT22;11382;48.086;11.632;2023-09-19T13:39:15;23.50;93.00
22430;DHT22;11382;48.086;11.632;2023-09-19T13:41:45;23.40;92.40
22430;DHT22;11382;48.086;11.632;2023-09-19T13:44:14;23.40;91.60
22430;DHT22;11382;48.086;11.632;2023-09-19T13:46:43;23.30;92.10
22430;DHT22;11382;48.086;11.632;2023-09-19T13:49:13;23.20;91.20
22430;DHT22;11382;48.086;11.632;2023-09-19T13:51:41;23.20;91.90
22430;DHT22;11382;48.086;11.632;2023-09-19T13:54:11;23.10;91.40
22430;DHT22;11382;48.086;11.632;2023-09-19T13:56:41;23.10;91.10
22430;DHT22;11382;48.086;11.632;2023-09-19T13:59:10;23.10;91.50
22430;DHT22;11382;48.086;11.632;2023-09-19T14:01:38;23.00;91.30
22430;DHT22;11382;48.086;11.632;2023-09-19T14:04:06;23.00;91.70
22430;DHT22;11382;48.086;11.632;2023-09-19T14:06:34;23.10;91.20
22430;DHT22;11382;48.086;11.632;2023-09-19T14:09:04;22.90;90.90
22430;DHT22;11382;48.086;11.632;2023-09-19T14:11:32;22.70;92.20
22430;DHT22;11382;48.086;11.632;2023-09-19T14:14:01;22.70;93.00
22430;DHT22;11382;48.086;11.632;2023-09-19T14:16:33;22.60;94.30
22430;DHT22;11382;48.086;11.632;2023-09-19T14:19:01;22.70;93.40
22430;DHT22;11382;48.086;11.632;2023-09-19T14:21:29;22.80;93.70
22430;DHT22;11382;48.086;11.632;2023-09-19T14:23:57;22.80;93.40
22430;DHT22;11382;48.086;11.632;2023-09-19T14:26:25;22.80;93.20
22430;DHT22;11382;48.086;11.632;2023-09-19T14:28:53;22.90;93.30
22430;DHT22;11382;48.086;11.632;2023-09-19T14:31:21;23.00;94.40
22430;DHT22;11382;48.086;11.632;2023-09-19T14:33:54;23.10;93.80
22430;DHT22;11382;48.086;11.632;2023-09-19T14:36:23;23.20;94.30
22430;DHT22;11382;48.086;11.632;2023-09-19T14:38:53;23.00;94.00
22430;DHT22;11382;48.086;11.632;2023-09-19T14:41:22;22.80;94.60
22430;DHT22;11382;48.086;11.632;2023-09-19T14:43:52;22.90;94.40
22430;DHT22;11382;48.086;11.632;2023-09-19T14:46:22;23.00;94.80
22430;DHT22;11382;48.086;11.632;2023-09-19T14:48:51;23.00;94.20
22430;DHT22;11382;48.086;11.632;2023-09-19T14:51:20;22.90;94.70
22430;DHT22;11382;48.086;11.632;2023-09-19T14:53:49;22.80;94.20
22430;DHT22;11382;48.086;11.632;2023-09-19T14:56:17;22.80;94.90
22430;DHT22;11382;48.086;11.632;2023-09-19T14:58:47;22.80;94.70
22430;DHT22;11382;48.086;11.632;2023-09-19T15:01:15;22.80;95.00
22430;DHT22;11382;48.086;11.632;2023-09-19T15:03:43;22.80;94.90
22430;DHT22;11382;48.086;11.632;2023-09-19T15:06:13;22.80;94.70
22430;DHT22;11382;48.086;11.632;2023-09-19T15:08:46;22.80;94.90
22430;DHT22;11382;48.086;11.632;2023-09-19T15:11:14;22.70;93.60
22430;DHT22;11382;48.086;11.632;2023-09-19T15:13:45;22.70;94.30
22430;DHT22;11382;48.086;11.632;2023-09-19T15:16:13;22.60;94.40
22430;DHT22;11382;48.086;11.632;2023-09-19T15:18:43;22.60;94.60
22430;DHT22;11382;48.086;11.632;2023-09-19T15:21:14;22.50;94.00
22430;DHT22;11382;48.086;11.632;2023-09-19T15:23:45;22.60;94.50
22430;DHT22;11382;48.086;11.632;2023-09-19T15:26:14;22.50;94.00
22430;DHT22;11382;48.086;11.632;2023-09-19T15:28:44;22.40;93.60
22430;DHT22;11382;48.086;11.632;2023-09-19T15:31:12;22.40;93.80
22430;DHT22;11382;48.086;11.632;2023-09-19T15:33:41;22.20;93.70
22430;DHT22;11382;48.086;11.632;2023-09-19T15:36:10;22.20;94.30
22430;DHT22;11382;48.086;11.632;2023-09-19T15:38:57;22.20;94.60
22430;DHT22;11382;48.086;11.632;2023-09-19T15:41:27;22.20;94.30
22430;DHT22;11382;48.086;11.632;2023-09-19T15:43:56;22.20;95.40
22430;DHT22;11382;48.086;11.632;2023-09-19T15:46:26;22.10;94.40
22430;DHT22;11382;48.086;11.632;2023-09-19T15:48:54;22.00;94.90